createdAt,value
2018-04-08T00:00:23.071Z,17.20
2018-04-08T00:02:50.674Z,17.20
2018-04-08T00:05:18.240Z,17.20
2018-04-08T00:07:45.772Z,17.20
2018-04-08T00:10:13.533Z,17.10
2018-04-08T00:12:41.099Z,17.20
2018-04-08T00:15:08.632Z,17.20
2018-04-08T00:17:36.190Z,17.20
2018-04-08T00:22:57.888Z,17.20
2018-04-08T00:25:25.409Z,17.20
2018-04-08T00:27:52.920Z,17.20
2018-04-08T00:30:20.508Z,17.10
2018-04-08T00:32:48.081Z,17.10
2018-04-08T00:35:15.610Z,17.00
2018-04-08T00:37:43.967Z,17.10
2018-04-08T00:40:11.547Z,17.10
2018-04-08T00:42:39.827Z,17.10
2018-04-08T00:45:08.172Z,17.10
2018-04-08T00:47:35.702Z,17.10
2018-04-08T00:50:03.269Z,17.00
2018-04-08T00:52:30.799Z,17.00
2018-04-08T00:54:58.339Z,17.00
2018-04-08T00:57:25.918Z,17.00
2018-04-08T00:59:53.637Z,17.00
2018-04-08T01:02:21.163Z,17.00
2018-04-08T01:04:48.731Z,17.10
2018-04-08T01:07:16.258Z,17.10
2018-04-08T01:09:43.783Z,17.00
2018-04-08T01:12:11.351Z,17.00
2018-04-08T01:14:39.696Z,16.90
2018-04-08T01:17:07.223Z,17.00
2018-04-08T01:19:45.309Z,17.10
2018-04-08T01:22:12.870Z,17.00
2018-04-08T01:24:40.399Z,17.00
2018-04-08T01:27:07.977Z,17.00
2018-04-08T01:29:35.541Z,17.00
2018-04-08T01:32:03.096Z,17.10
2018-04-08T01:34:31.441Z,17.00
2018-04-08T01:36:58.945Z,17.00
2018-04-08T01:39:26.501Z,17.00
2018-04-08T01:41:54.023Z,17.00
2018-04-08T01:44:21.555Z,16.90
2018-04-08T01:46:49.095Z,17.00
2018-04-08T01:49:31.012Z,17.00
2018-04-08T01:51:58.520Z,17.00
2018-04-08T01:54:26.033Z,17.00
2018-04-08T01:56:53.570Z,17.00
2018-04-08T01:59:21.208Z,16.90
2018-04-08T02:01:48.780Z,16.90
2018-04-08T02:04:16.320Z,17.00
2018-04-08T02:06:43.895Z,17.00
2018-04-08T02:09:25.688Z,17.00
2018-04-08T02:11:53.248Z,17.00
2018-04-08T02:14:20.796Z,17.00
2018-04-08T02:16:48.336Z,17.00
2018-04-08T02:19:16.691Z,17.00
2018-04-08T02:21:44.227Z,17.00
2018-04-08T02:24:11.740Z,16.90
2018-04-08T02:26:39.278Z,17.00
2018-04-08T02:29:07.599Z,16.90
2018-04-08T02:31:35.136Z,16.90
2018-04-08T02:34:02.716Z,16.80
2018-04-08T02:36:30.212Z,16.80
2018-04-08T02:39:12.073Z,16.80
2018-04-08T02:41:39.660Z,16.80
2018-04-08T02:44:07.197Z,16.70
2018-04-08T02:46:34.720Z,16.80
2018-04-08T02:49:02.309Z,16.90
2018-04-08T02:51:29.831Z,16.90
2018-04-08T02:53:58.116Z,16.80
2018-04-08T02:56:25.728Z,16.80
2018-04-08T02:58:53.267Z,16.80
2018-04-08T03:01:20.791Z,16.80
2018-04-08T03:03:48.336Z,16.90
2018-04-08T03:06:16.634Z,16.90
2018-04-08T03:08:44.177Z,16.90
2018-04-08T03:11:11.727Z,16.90
2018-04-08T03:13:39.280Z,16.90
2018-04-08T03:16:06.832Z,16.90
2018-04-08T03:18:34.379Z,16.90
2018-04-08T03:21:01.930Z,16.90
2018-04-08T03:23:29.468Z,16.90
2018-04-08T03:25:57.000Z,16.90
2018-04-08T03:28:24.541Z,16.90
2018-04-08T03:30:52.852Z,16.80
2018-04-08T03:33:20.433Z,16.80
2018-04-08T03:35:47.948Z,16.80
2018-04-08T03:38:15.493Z,16.90
2018-04-08T03:40:43.124Z,16.90
2018-04-08T03:43:10.631Z,16.90
2018-04-08T03:45:38.167Z,16.90
2018-04-08T03:48:05.720Z,16.90
2018-04-08T03:50:34.048Z,16.80
2018-04-08T03:53:01.600Z,16.80
2018-04-08T03:55:29.186Z,16.80
2018-04-08T03:57:56.732Z,16.80
2018-04-08T04:00:24.240Z,16.90
2018-04-08T04:02:51.812Z,16.80
2018-04-08T04:05:19.356Z,16.70
2018-04-08T04:07:47.651Z,16.70
2018-04-08T04:10:15.229Z,16.60
2018-04-08T04:12:42.765Z,16.60
2018-04-08T04:15:10.348Z,16.60
2018-04-08T04:17:37.943Z,16.60
2018-04-08T04:20:17.456Z,16.60
2018-04-08T04:22:56.764Z,16.60
2018-04-08T04:25:49.968Z,16.60
2018-04-08T04:28:17.480Z,16.60
2018-04-08T04:30:45.024Z,16.50
2018-04-08T04:33:13.352Z,16.50
2018-04-08T04:35:40.864Z,16.50
2018-04-08T04:38:09.151Z,16.60
2018-04-08T04:40:36.711Z,16.70
2018-04-08T04:43:04.251Z,16.60
2018-04-08T04:45:31.789Z,16.60
2018-04-08T04:47:59.324Z,16.60
2018-04-08T04:50:26.852Z,16.60
2018-04-08T04:52:54.396Z,16.50
2018-04-08T04:55:21.921Z,16.50
2018-04-08T04:57:49.448Z,16.50
2018-04-08T05:00:17.021Z,16.40
2018-04-08T05:02:44.554Z,16.40
2018-04-08T05:05:12.072Z,16.40
2018-04-08T05:07:39.629Z,16.50
2018-04-08T05:10:07.231Z,16.60
2018-04-08T05:12:34.756Z,16.60
2018-04-08T05:15:02.331Z,16.60
2018-04-08T05:17:29.899Z,16.60
2018-04-08T05:19:57.428Z,16.70
2018-04-08T05:22:25.747Z,16.60
2018-04-08T05:24:53.271Z,16.60
2018-04-08T05:27:21.584Z,16.60
2018-04-08T05:29:49.295Z,16.60
2018-04-08T05:32:16.855Z,16.60
2018-04-08T05:34:45.173Z,16.80
2018-04-08T05:37:12.731Z,16.80
2018-04-08T05:39:40.343Z,16.80
2018-04-08T05:42:07.864Z,16.90
2018-04-08T05:44:35.408Z,16.80
2018-04-08T05:47:02.932Z,16.80
2018-04-08T05:49:30.484Z,16.90
2018-04-08T05:51:58.072Z,16.90
2018-04-08T05:54:25.587Z,17.00
2018-04-08T05:56:53.100Z,17.00
2018-04-08T05:59:20.644Z,17.00
2018-04-08T06:01:48.172Z,17.00
2018-04-08T06:04:16.469Z,16.90
2018-04-08T06:06:44.028Z,16.90
2018-04-08T06:09:22.097Z,16.90
2018-04-08T06:11:49.688Z,16.90
2018-04-08T06:14:17.247Z,17.00
2018-04-08T06:16:44.777Z,17.00
2018-04-08T06:19:12.316Z,17.10
2018-04-08T06:21:39.839Z,17.00
2018-04-08T06:24:07.380Z,17.00
2018-04-08T06:26:34.932Z,17.00
2018-04-08T06:29:03.229Z,17.10
2018-04-08T06:31:30.745Z,17.10
2018-04-08T06:33:58.284Z,17.10
2018-04-08T06:36:25.804Z,17.20
2018-04-08T06:38:53.329Z,17.10
2018-04-08T06:41:20.871Z,17.10
2018-04-08T06:43:48.424Z,17.10
2018-04-08T06:46:15.952Z,17.10
2018-04-08T06:48:43.473Z,17.10
2018-04-08T06:51:11.857Z,17.20
2018-04-08T06:53:40.164Z,17.30
2018-04-08T06:56:07.696Z,17.30
2018-04-08T06:58:36.008Z,17.30
2018-04-08T07:01:03.570Z,17.30
2018-04-08T07:03:31.118Z,17.40
2018-04-08T07:05:58.688Z,17.50
2018-04-08T07:08:26.208Z,17.50
2018-04-08T07:10:53.744Z,17.50
2018-04-08T07:13:21.317Z,17.50
2018-04-08T07:15:48.868Z,17.50
2018-04-08T07:18:16.417Z,17.50
2018-04-08T07:20:44.849Z,17.50
2018-04-08T07:23:12.380Z,17.50
2018-04-08T07:25:40.672Z,17.50
2018-04-08T07:28:08.205Z,17.50
2018-04-08T07:30:36.519Z,17.50
2018-04-08T07:33:04.900Z,17.60
2018-04-08T07:35:32.424Z,17.60
2018-04-08T07:38:00.769Z,17.50
2018-04-08T07:40:28.452Z,17.50
2018-04-08T07:42:55.972Z,17.50
2018-04-08T07:45:23.534Z,17.50
2018-04-08T07:47:51.070Z,17.50
2018-04-08T07:50:18.646Z,17.50
2018-04-08T07:52:46.159Z,17.50
2018-04-08T07:55:14.459Z,17.60
2018-04-08T07:57:42.013Z,17.60
2018-04-08T08:00:09.620Z,17.70
2018-04-08T08:02:37.152Z,17.80
2018-04-08T08:05:04.670Z,17.80
2018-04-08T08:07:32.199Z,17.90
2018-04-08T08:09:59.756Z,18.10
2018-04-08T08:12:27.268Z,18.30
2018-04-08T08:14:54.846Z,18.40
2018-04-08T08:17:22.355Z,18.50
2018-04-08T08:20:09.677Z,18.60
2018-04-08T08:22:37.971Z,18.70
2018-04-08T08:25:05.478Z,18.70
2018-04-08T08:27:33.018Z,18.80
2018-04-08T08:30:00.604Z,18.90
2018-04-08T08:32:28.128Z,19.00
2018-04-08T08:34:55.665Z,19.00
2018-04-08T08:37:23.172Z,19.00
2018-04-08T08:40:00.579Z,19.00
2018-04-08T08:42:28.101Z,19.00
2018-04-08T08:44:55.603Z,19.00
2018-04-08T08:47:23.917Z,19.10
2018-04-08T08:49:51.639Z,19.00
2018-04-08T08:52:19.943Z,19.10
2018-04-08T08:54:47.537Z,19.10
2018-04-08T08:57:15.025Z,19.20
2018-04-08T08:59:42.571Z,19.30
2018-04-08T09:02:10.111Z,19.30
2018-04-08T09:04:37.655Z,19.30
2018-04-08T09:07:06.033Z,19.40
2018-04-08T09:09:33.560Z,19.40
2018-04-08T09:12:01.848Z,19.30
2018-04-08T09:14:29.428Z,19.30
2018-04-08T09:16:56.968Z,19.40
2018-04-08T09:19:42.208Z,19.50
2018-04-08T09:22:11.241Z,19.50
2018-04-08T09:24:41.652Z,19.50
2018-04-08T09:27:09.961Z,19.70
2018-04-08T09:29:37.517Z,19.60
2018-04-08T09:32:05.757Z,19.50
2018-04-08T09:34:34.063Z,19.50
2018-04-08T09:37:01.575Z,19.50
2018-04-08T09:39:29.120Z,19.60
2018-04-08T09:41:56.682Z,19.60
2018-04-08T09:44:24.195Z,19.70
2018-04-08T09:46:51.738Z,19.90
2018-04-08T09:49:19.272Z,19.80
2018-04-08T09:51:46.820Z,19.90
2018-04-08T09:54:14.343Z,19.80
2018-04-08T09:56:41.888Z,20.00
2018-04-08T09:59:09.454Z,19.80
2018-04-08T10:01:42.549Z,19.80
2018-04-08T10:04:10.096Z,19.80
2018-04-08T10:06:37.628Z,19.80
2018-04-08T10:09:05.944Z,19.90
2018-04-08T10:11:33.496Z,20.00
2018-04-08T10:14:01.011Z,20.10
2018-04-08T10:16:28.576Z,20.10
2018-04-08T10:18:56.112Z,20.20
2018-04-08T10:21:23.625Z,20.20
2018-04-08T10:23:51.184Z,20.20
2018-04-08T10:26:18.699Z,20.30
2018-04-08T10:28:46.232Z,20.20
2018-04-08T10:31:13.804Z,20.20
2018-04-08T10:33:41.348Z,20.10
2018-04-08T10:36:08.928Z,20.20
2018-04-08T10:38:36.500Z,20.30
2018-04-08T10:41:04.073Z,20.30
2018-04-08T10:43:31.611Z,20.20
2018-04-08T10:45:59.929Z,20.20
2018-04-08T10:48:27.449Z,20.10
2018-04-08T10:50:54.991Z,20.20
2018-04-08T10:53:22.555Z,20.20
2018-04-08T10:55:50.075Z,20.40
2018-04-08T10:58:17.587Z,20.50
2018-04-08T11:00:45.148Z,20.50
2018-04-08T11:03:13.452Z,20.30
2018-04-08T11:05:40.980Z,20.20
2018-04-08T11:08:08.536Z,20.10
2018-04-08T11:10:36.074Z,20.20
2018-04-08T11:13:03.632Z,20.30
2018-04-08T11:15:31.246Z,20.30
2018-04-08T11:17:58.805Z,20.30
2018-04-08T11:20:26.326Z,20.50
2018-04-08T11:22:54.661Z,20.40
2018-04-08T11:25:22.189Z,20.40
2018-04-08T11:27:49.728Z,20.30
2018-04-08T11:30:18.051Z,20.40
2018-04-08T11:32:45.572Z,20.30
2018-04-08T11:35:13.098Z,20.40
2018-04-08T11:37:40.645Z,20.50
2018-04-08T11:40:08.200Z,20.50
2018-04-08T11:42:35.728Z,20.40
2018-04-08T11:45:03.300Z,20.40
2018-04-08T11:47:30.831Z,20.30
2018-04-08T11:49:58.374Z,20.40
2018-04-08T11:52:25.928Z,20.50
2018-04-08T11:54:54.223Z,20.60
2018-04-08T11:57:21.749Z,20.60
2018-04-08T11:59:49.299Z,20.70
2018-04-08T12:02:16.832Z,20.80
2018-04-08T12:04:44.348Z,20.80
2018-04-08T12:07:12.677Z,20.90
2018-04-08T12:09:40.194Z,20.80
2018-04-08T12:12:07.700Z,20.80
2018-04-08T12:14:35.304Z,20.80
2018-04-08T12:17:02.845Z,20.80
2018-04-08T12:19:31.135Z,20.70
2018-04-08T12:21:59.428Z,20.80
2018-04-08T12:24:26.965Z,20.80
2018-04-08T12:26:54.500Z,20.70
2018-04-08T12:29:22.813Z,20.70
2018-04-08T12:31:50.348Z,20.70
2018-04-08T12:34:18.644Z,20.80
2018-04-08T12:36:46.256Z,20.80
2018-04-08T12:39:13.813Z,20.60
2018-04-08T12:41:41.344Z,20.70
2018-04-08T12:44:08.903Z,20.70
2018-04-08T12:46:36.431Z,20.80
2018-04-08T12:49:04.721Z,20.50
2018-04-08T12:51:32.341Z,20.50
2018-04-08T12:53:59.857Z,20.40
2018-04-08T12:56:27.420Z,20.30
2018-04-08T12:58:54.982Z,20.20
2018-04-08T13:01:22.532Z,20.10
2018-04-08T13:03:50.074Z,20.10
2018-04-08T13:06:17.686Z,20.00
2018-04-08T13:08:45.241Z,20.00
2018-04-08T13:11:12.763Z,20.00
2018-04-08T13:13:40.328Z,20.00
2018-04-08T13:16:07.863Z,19.90
2018-04-08T13:18:35.384Z,19.90
2018-04-08T13:21:02.945Z,19.90
2018-04-08T13:23:30.476Z,19.80
2018-04-08T13:25:58.816Z,19.80
2018-04-08T13:28:26.385Z,19.70
2018-04-08T13:30:53.957Z,19.60
2018-04-08T13:33:21.476Z,19.60
2018-04-08T13:35:49.042Z,19.70
2018-04-08T13:38:16.576Z,19.60
2018-04-08T13:40:44.118Z,19.40
2018-04-08T13:43:11.681Z,19.40
2018-04-08T13:45:39.221Z,19.50
2018-04-08T13:48:06.750Z,19.50
2018-04-08T13:50:34.320Z,19.40
2018-04-08T13:53:01.848Z,19.40
2018-04-08T13:55:30.140Z,19.70
2018-04-08T13:57:57.956Z,19.70
2018-04-08T14:00:25.479Z,19.70
2018-04-08T14:02:53.024Z,19.70
2018-04-08T14:05:20.547Z,19.70
2018-04-08T14:07:48.073Z,19.60
2018-04-08T14:10:15.581Z,19.50
2018-04-08T14:12:43.116Z,19.50
2018-04-08T14:15:10.621Z,19.60
2018-04-08T14:17:38.211Z,19.60
2018-04-08T14:20:05.761Z,19.60
2018-04-08T14:22:33.271Z,19.70
2018-04-08T14:25:00.784Z,19.60
2018-04-08T14:27:28.349Z,19.70
2018-04-08T14:29:55.884Z,19.80
2018-04-08T14:32:23.412Z,19.90
2018-04-08T14:34:50.988Z,19.80
2018-04-08T14:37:18.641Z,19.80
2018-04-08T14:39:46.177Z,19.90
2018-04-08T14:42:14.511Z,19.80
2018-04-08T14:44:42.036Z,19.80
2018-04-08T14:47:09.560Z,19.90
2018-04-08T14:49:37.119Z,19.80
2018-04-08T14:52:04.640Z,19.90
2018-04-08T14:57:13.974Z,20.10
2018-04-08T14:59:41.542Z,20.10
2018-04-08T15:02:09.072Z,20.20
2018-04-08T15:04:36.679Z,20.20
2018-04-08T15:07:04.224Z,20.30
2018-04-08T15:09:31.760Z,20.40
2018-04-08T15:11:59.339Z,20.40
2018-04-08T15:14:26.916Z,20.30
2018-04-08T15:16:54.465Z,20.20
2018-04-08T15:19:22.060Z,20.20
2018-04-08T15:21:49.596Z,20.10
2018-04-08T15:24:17.111Z,20.10
2018-04-08T15:26:44.692Z,20.10
2018-04-08T15:29:12.216Z,19.90
2018-04-08T15:31:39.781Z,19.90
2018-04-08T15:34:07.329Z,19.80
2018-04-08T15:36:34.888Z,19.80
2018-04-08T15:39:03.187Z,19.60
2018-04-08T15:41:30.707Z,19.50
2018-04-08T15:43:58.296Z,19.50
2018-04-08T15:46:25.920Z,19.50
2018-04-08T15:48:53.448Z,19.50
2018-04-08T15:51:21.057Z,19.40
2018-04-08T15:53:48.543Z,19.40
2018-04-08T15:56:16.085Z,19.40
2018-04-08T15:58:44.683Z,19.20
2018-04-08T16:01:12.215Z,19.20
2018-04-08T16:03:40.536Z,19.20
2018-04-08T16:06:08.091Z,19.20
2018-04-08T16:08:35.592Z,19.20
2018-04-08T16:11:03.095Z,19.10
2018-04-08T16:13:30.658Z,19.10
2018-04-08T16:15:58.159Z,19.10
2018-04-08T16:18:25.701Z,19.00
2018-04-08T16:20:53.292Z,19.00
2018-04-08T16:23:20.812Z,19.00
2018-04-08T16:25:48.320Z,19.00
2018-04-08T16:28:16.692Z,18.90
2018-04-08T16:30:45.012Z,18.90
2018-04-08T16:33:12.553Z,18.80
2018-04-08T16:35:40.096Z,18.90
2018-04-08T16:38:07.617Z,18.80
2018-04-08T16:40:35.152Z,18.80
2018-04-08T16:43:02.718Z,18.80
2018-04-08T16:45:30.268Z,18.80
2018-04-08T16:47:57.760Z,18.80
2018-04-08T16:50:25.297Z,18.80
2018-04-08T16:52:52.824Z,18.70
2018-04-08T16:55:20.340Z,18.70
2018-04-08T16:57:47.901Z,18.70
2018-04-08T17:00:15.456Z,18.70
2018-04-08T17:02:42.961Z,18.70
2018-04-08T17:05:10.520Z,18.60
2018-04-08T17:07:38.045Z,18.60
2018-04-08T17:10:06.342Z,18.50
2018-04-08T17:12:33.868Z,18.50
2018-04-08T17:15:01.365Z,18.50
2018-04-08T17:17:28.916Z,18.50
2018-04-08T17:20:01.995Z,18.50
2018-04-08T17:22:29.472Z,18.50
2018-04-08T17:24:57.023Z,18.40
2018-04-08T17:27:24.550Z,18.50
2018-04-08T17:29:52.066Z,18.50
2018-04-08T17:32:19.597Z,18.50
2018-04-08T17:34:47.160Z,18.40
2018-04-08T17:37:14.693Z,18.40
2018-04-08T17:39:43.005Z,18.40
2018-04-08T17:42:10.536Z,18.30
2018-04-08T17:44:38.817Z,18.30
2018-04-08T17:47:06.365Z,18.30
2018-04-08T17:49:34.684Z,18.20
2018-04-08T17:52:02.235Z,18.20
2018-04-08T17:54:29.767Z,18.20
2018-04-08T17:56:57.308Z,18.10
2018-04-08T17:59:25.602Z,18.10
2018-04-08T18:01:53.921Z,18.10
2018-04-08T18:04:21.482Z,18.10
2018-04-08T18:06:49.092Z,18.10
2018-04-08T18:09:17.384Z,18.10
2018-04-08T18:11:44.961Z,18.00
2018-04-08T18:14:12.498Z,18.10
2018-04-08T18:16:40.049Z,18.10
2018-04-08T18:19:17.180Z,18.00
2018-04-08T18:21:44.768Z,18.00
2018-04-08T18:24:12.282Z,18.10
2018-04-08T18:26:39.782Z,18.00
2018-04-08T18:29:07.325Z,18.10
2018-04-08T18:31:34.889Z,18.10
2018-04-08T18:34:02.405Z,18.10
2018-04-08T18:36:29.919Z,18.00
2018-04-08T18:38:57.464Z,18.00
2018-04-08T18:41:25.001Z,18.00
2018-04-08T18:43:52.520Z,18.00
2018-04-08T18:46:20.057Z,18.00
2018-04-08T18:48:47.628Z,18.00
2018-04-08T18:51:15.940Z,18.00
2018-04-08T18:53:44.202Z,18.00
2018-04-08T18:56:11.708Z,18.00
2018-04-08T18:58:39.224Z,18.00
2018-04-08T19:01:06.788Z,18.00
2018-04-08T19:03:34.311Z,18.00
2018-04-08T19:06:01.864Z,17.90
2018-04-08T19:08:29.412Z,17.90
2018-04-08T19:10:56.948Z,17.90
2018-04-08T19:13:24.477Z,17.90
2018-04-08T19:15:52.008Z,17.90
2018-04-08T19:18:19.532Z,17.90
2018-04-08T19:20:47.112Z,17.90
2018-04-08T19:23:14.648Z,17.90
2018-04-08T19:25:42.184Z,17.90
2018-04-08T19:28:09.729Z,17.90
2018-04-08T19:30:37.279Z,17.90
2018-04-08T19:33:05.555Z,17.90
2018-04-08T19:35:33.168Z,17.90
2018-04-08T19:38:00.743Z,17.90
2018-04-08T19:40:28.250Z,17.80
2018-04-08T19:42:55.807Z,17.80
2018-04-08T19:45:23.372Z,17.80
2018-04-08T19:47:50.941Z,17.80
2018-04-08T19:50:18.504Z,17.90
2018-04-08T19:52:46.059Z,17.80
2018-04-08T19:55:13.589Z,17.80
2018-04-08T19:57:41.134Z,17.80
2018-04-08T20:00:08.667Z,17.80
2018-04-08T20:02:36.170Z,17.80
2018-04-08T20:05:03.712Z,17.80
2018-04-08T20:07:31.236Z,17.80
2018-04-08T20:09:58.740Z,17.70
2018-04-08T20:12:26.279Z,17.70
2018-04-08T20:14:54.573Z,17.70
2018-04-08T20:17:22.075Z,17.70
2018-04-08T20:19:49.602Z,17.60
2018-04-08T20:22:17.178Z,17.60
2018-04-08T20:24:44.729Z,17.60
2018-04-08T20:27:12.281Z,17.60
2018-04-08T20:29:39.868Z,17.60
2018-04-08T20:32:07.396Z,17.60
2018-04-08T20:34:35.009Z,17.60
2018-04-08T20:37:02.515Z,17.50
2018-04-08T20:39:30.108Z,17.50
2018-04-08T20:41:57.632Z,17.50
2018-04-08T20:44:25.165Z,17.50
2018-04-08T20:46:53.536Z,17.50
2018-04-08T20:49:21.027Z,17.50
2018-04-08T20:51:48.523Z,17.50
2018-04-08T20:54:16.071Z,17.50
2018-04-08T20:56:43.576Z,17.50
2018-04-08T20:59:11.864Z,17.60
2018-04-08T21:01:39.431Z,17.60
2018-04-08T21:04:06.926Z,17.50
2018-04-08T21:06:34.416Z,17.50
2018-04-08T21:09:01.985Z,17.50
2018-04-08T21:11:29.525Z,17.50
2018-04-08T21:13:57.844Z,17.50
2018-04-08T21:16:25.347Z,17.40
2018-04-08T21:18:52.887Z,17.50
2018-04-08T21:21:20.388Z,17.50
2018-04-08T21:23:47.943Z,17.50
2018-04-08T21:26:15.503Z,17.50
2018-04-08T21:28:43.032Z,17.50
2018-04-08T21:31:10.554Z,17.50
2018-04-08T21:33:38.055Z,17.50
2018-04-08T21:36:05.600Z,17.50
2018-04-08T21:38:33.128Z,17.50
2018-04-08T21:41:00.650Z,17.60
2018-04-08T21:43:28.979Z,17.50
2018-04-08T21:45:56.479Z,17.50
2018-04-08T21:48:24.781Z,17.50
2018-04-08T21:50:52.298Z,17.50
2018-04-08T21:53:19.813Z,17.50
2018-04-08T21:55:47.340Z,17.50
2018-04-08T21:58:14.877Z,17.50
2018-04-08T22:00:42.416Z,17.50
2018-04-08T22:03:09.946Z,17.50
2018-04-08T22:05:37.446Z,17.50
2018-04-08T22:08:04.970Z,17.50
2018-04-08T22:10:32.566Z,17.50
2018-04-08T22:13:00.093Z,17.50
2018-04-08T22:15:27.607Z,17.40
2018-04-08T22:17:55.933Z,17.40
2018-04-08T22:20:23.460Z,17.40
2018-04-08T22:22:50.987Z,17.40
2018-04-08T22:25:19.324Z,17.40
2018-04-08T22:27:46.833Z,17.40
2018-04-08T22:30:15.148Z,17.50
2018-04-08T22:32:42.712Z,17.40
2018-04-08T22:35:10.225Z,17.50
2018-04-08T22:37:37.777Z,17.50
2018-04-08T22:40:05.337Z,17.50
2018-04-08T22:42:33.628Z,17.40
2018-04-08T22:45:01.141Z,17.40
2018-04-08T22:47:28.690Z,17.40
2018-04-08T22:49:56.248Z,17.40
2018-04-08T22:52:23.848Z,17.40
2018-04-08T22:54:52.168Z,17.30
2018-04-08T22:57:19.816Z,17.40
2018-04-08T22:59:47.414Z,17.30
2018-04-08T23:02:14.946Z,17.30
2018-04-08T23:04:42.467Z,17.30
2018-04-08T23:07:10.068Z,17.20
2018-04-08T23:09:37.581Z,17.20
2018-04-08T23:12:05.883Z,17.20
2018-04-08T23:14:33.468Z,17.10
2018-04-08T23:17:00.971Z,17.10
2018-04-08T23:19:28.507Z,17.10
2018-04-08T23:21:57.594Z,17.00
2018-04-08T23:24:25.115Z,17.00
2018-04-08T23:26:52.656Z,17.00
2018-04-08T23:29:20.220Z,17.00
2018-04-08T23:31:47.748Z,16.90
2018-04-08T23:34:15.301Z,16.90
2018-04-08T23:36:42.832Z,16.90
2018-04-08T23:39:10.370Z,16.90
2018-04-08T23:41:37.895Z,16.90
2018-04-08T23:44:06.199Z,16.80
2018-04-08T23:46:33.736Z,16.80
2018-04-08T23:49:02.037Z,16.90
2018-04-08T23:51:29.564Z,16.90
2018-04-08T23:53:57.884Z,16.70
2018-04-08T23:56:25.414Z,16.80
2018-04-08T23:58:52.922Z,16.70
